Terminal Aerodrome Forecast
Issued by NWS Charleston, WV

Current Version | Previous Version | Graphics & Text | Print | Product List | Glossary On
Versions: 1 2 3 4 5 6 7 8 9 10 11 12 13 14 15 16 17 18 19 20 21 22 23 24 25 26 27 28 29 30 31 32
000
FTUS41 KRLX 272100 AAA
TAFBKW
TAF AMD
KBKW 272122Z 2721/2818 32010KT P6SM SKC
     FM272300 33009KT P6SM BKN015
     FM281400 32005KT P6SM SCT015
     FM281700 32006KT P6SM SCT200=

USA.gov is the U.S. government's official web portal to all federal, state and local government web resources and services.